Ellsinore, Missouri
Current Conditions -  °F | °C
As of 3:53 PM on Saturday 25 Oct 2014 (Local Time) from KPOF Reporting Station
Haze Haze  
Wind Chill: 82°   Ceiling: Unl
Heat Index: 83°   Visibility: 6mi
Dew Point: 63°   Wind: 5mph
Humidity: 52%   Direction: 250°WSW
Pressure: 29.99"   Gusts: NA
Location:  36.93°N, 90.75°W
Report Text: KPOF 252053Z AUTO 25004KT 6SM HZ CLR 28/17 A2999 RMK AO2 SLP151 T02780172 56012
Loading
Personal Weather Stations






























Interactive Weather Map
Tropical Storm Tracking
New forecast layout! Learn more

10-Day Weather Forecast

Advertisements
Track Severe Weather on mobile